Aviation Digital Data Service (ADDS)

Output produced by METARs form (1531 UTC 21 September 2018)
found at http://www.aviationweather.gov/metar/data/
 
METAR text: KPHD 211453Z AUTO 20008G17KT 10SM SCT075 BKN090 27/21 A3004 RMK AO2 SLP165 T02720206 56003
Conditions at: KPHD (NEW PHILADELPHIA, OH, US) observed 1453 UTC 21 September 2018
Temperature: 27.2°C (81°F)
Dewpoint: 20.6°C (69°F) [RH = 67%]
Pressure (altimeter): 30.04 inches Hg (1017.4 mb)
[Sea-level pressure: 1016.5 mb]
Winds: from the SSW (200 degrees) at 9 MPH (8 knots; 4.1 m/s)
gusting to 20 MPH (17 knots; 8.7 m/s)
Visibility: 10 or more miles (16+ km)
Ceiling: 9000 feet AGL
Clouds: scattered clouds at 7500 feet AGL
broken clouds at 9000 feet AGL
Weather: automated observation with no human augmentation;
there may or may not be significant weather present at this time

METAR text: KPHD 211353Z AUTO 22007G16KT 10SM CLR 26/21 A3004 RMK AO2 SLP165 T02610206
Conditions at: KPHD (NEW PHILADELPHIA, OH, US) observed 1353 UTC 21 September 2018
Temperature: 26.1°C (79°F)
Dewpoint: 20.6°C (69°F) [RH = 72%]
Pressure (altimeter): 30.04 inches Hg (1017.4 mb)
[Sea-level pressure: 1016.5 mb]
Winds: from the SW (220 degrees) at 8 MPH (7 knots; 3.6 m/s)
gusting to 18 MPH (16 knots; 8.2 m/s)
Visibility: 10 or more miles (16+ km)
Ceiling: at least 12,000 feet AGL
Clouds: sky clear below 12,000 feet AGL
Weather: automated observation with no human augmentation;
there may or may not be significant weather present at this time

METAR text: KPHD 211253Z AUTO 19007KT 10SM CLR 24/21 A3005 RMK AO2 SLP168 T02440206
Conditions at: KPHD (NEW PHILADELPHIA, OH, US) observed 1253 UTC 21 September 2018
Temperature: 24.4°C (76°F)
Dewpoint: 20.6°C (69°F) [RH = 79%]
Pressure (altimeter): 30.05 inches Hg (1017.7 mb)
[Sea-level pressure: 1016.8 mb]
Winds: from the S (190 degrees) at 8 MPH (7 knots; 3.6 m/s)
Visibility: 10 or more miles (16+ km)
Ceiling: at least 12,000 feet AGL
Clouds: sky clear below 12,000 feet AGL
Weather: automated observation with no human augmentation;
there may or may not be significant weather present at this time

METAR text: KPHD 211153Z AUTO 16005KT 8SM CLR 23/21 A3005 RMK AO2 SLP169 T02280206 10239 20222 55001
Conditions at: KPHD (NEW PHILADELPHIA, OH, US) observed 1153 UTC 21 September 2018
Temperature: 22.8°C (73°F)
Dewpoint: 20.6°C (69°F) [RH = 87%]
Pressure (altimeter): 30.05 inches Hg (1017.7 mb)
[Sea-level pressure: 1016.9 mb]
Winds: from the SSE (160 degrees) at 6 MPH (5 knots; 2.6 m/s)
Visibility: 8 miles (13 km)
Ceiling: at least 12,000 feet AGL
Clouds: sky clear below 12,000 feet AGL
Weather: automated observation with no human augmentation;
there may or may not be significant weather present at this time

METAR text: KPHD 211053Z AUTO 15005KT 10SM CLR 22/21 A3005 RMK AO2 SLP167 T02220206
Conditions at: KPHD (NEW PHILADELPHIA, OH, US) observed 1053 UTC 21 September 2018
Temperature: 22.2°C (72°F)
Dewpoint: 20.6°C (69°F) [RH = 91%]
Pressure (altimeter): 30.05 inches Hg (1017.7 mb)
[Sea-level pressure: 1016.7 mb]
Winds: from the SSE (150 degrees) at 6 MPH (5 knots; 2.6 m/s)
Visibility: 10 or more miles (16+ km)
Ceiling: at least 12,000 feet AGL
Clouds: sky clear below 12,000 feet AGL
Weather: automated observation with no human augmentation;
there may or may not be significant weather present at this time

METAR text: KPHD 210953Z AUTO 16004KT 10SM CLR 23/21 A3005 RMK AO2 SLP168 T02280206
Conditions at: KPHD (NEW PHILADELPHIA, OH, US) observed 0953 UTC 21 September 2018
Temperature: 22.8°C (73°F)
Dewpoint: 20.6°C (69°F) [RH = 87%]
Pressure (altimeter): 30.05 inches Hg (1017.7 mb)
[Sea-level pressure: 1016.8 mb]
Winds: from the SSE (160 degrees) at 5 MPH (4 knots; 2.1 m/s)
Visibility: 10 or more miles (16+ km)
Ceiling: at least 12,000 feet AGL
Clouds: sky clear below 12,000 feet AGL
Weather: automated observation with no human augmentation;
there may or may not be significant weather present at this time

METAR text: KPHD 210853Z AUTO 17004KT 10SM CLR 23/21 A3005 RMK AO2 SLP169 T02330206 53002
Conditions at: KPHD (NEW PHILADELPHIA, OH, US) observed 0853 UTC 21 September 2018
Temperature: 23.3°C (74°F)
Dewpoint: 20.6°C (69°F) [RH = 85%]
Pressure (altimeter): 30.05 inches Hg (1017.7 mb)
[Sea-level pressure: 1016.9 mb]
Winds: from the S (170 degrees) at 5 MPH (4 knots; 2.1 m/s)
Visibility: 10 or more miles (16+ km)
Ceiling: at least 12,000 feet AGL
Clouds: sky clear below 12,000 feet AGL
Weather: automated observation with no human augmentation;
there may or may not be significant weather present at this time

METAR text: KPHD 210753Z AUTO 17003KT 10SM CLR 23/21 A3005 RMK AO2 SLP166 T02330206
Conditions at: KPHD (NEW PHILADELPHIA, OH, US) observed 0753 UTC 21 September 2018
Temperature: 23.3°C (74°F)
Dewpoint: 20.6°C (69°F) [RH = 85%]
Pressure (altimeter): 30.05 inches Hg (1017.7 mb)
[Sea-level pressure: 1016.6 mb]
Winds: from the S (170 degrees) at 3 MPH (3 knots; 1.5 m/s)
Visibility: 10 or more miles (16+ km)
Ceiling: at least 12,000 feet AGL
Clouds: sky clear below 12,000 feet AGL
Weather: automated observation with no human augmentation;
there may or may not be significant weather present at this time

METAR text: KPHD 210653Z AUTO 00000KT 10SM CLR 24/21 A3004 RMK AO2 SLP165 T02390211
Conditions at: KPHD (NEW PHILADELPHIA, OH, US) observed 0653 UTC 21 September 2018
Temperature: 23.9°C (75°F)
Dewpoint: 21.1°C (70°F) [RH = 84%]
Pressure (altimeter): 30.04 inches Hg (1017.4 mb)
[Sea-level pressure: 1016.5 mb]
Winds: calm
Visibility: 10 or more miles (16+ km)
Ceiling: at least 12,000 feet AGL
Clouds: sky clear below 12,000 feet AGL
Weather: automated observation with no human augmentation;
there may or may not be significant weather present at this time

METAR text: KPHD 210553Z AUTO 12003KT 9SM CLR 23/21 A3005 RMK AO2 SLP167 T02330211 10261 20233 58004
Conditions at: KPHD (NEW PHILADELPHIA, OH, US) observed 0553 UTC 21 September 2018
Temperature: 23.3°C (74°F)
Dewpoint: 21.1°C (70°F) [RH = 87%]
Pressure (altimeter): 30.05 inches Hg (1017.7 mb)
[Sea-level pressure: 1016.7 mb]
Winds: from the ESE (120 degrees) at 3 MPH (3 knots; 1.5 m/s)
Visibility: 9 miles (14 km)
Ceiling: at least 12,000 feet AGL
Clouds: sky clear below 12,000 feet AGL
Weather: automated observation with no human augmentation;
there may or may not be significant weather present at this time

METAR text: KPHD 210453Z AUTO 00000KT 8SM CLR 23/22 A3006 RMK AO2 SLP171 T02330217 403110156
Conditions at: KPHD (NEW PHILADELPHIA, OH, US) observed 0453 UTC 21 September 2018
Temperature: 23.3°C (74°F)
Dewpoint: 21.7°C (71°F) [RH = 91%]
Pressure (altimeter): 30.06 inches Hg (1018.0 mb)
[Sea-level pressure: 1017.1 mb]
Winds: calm
Visibility: 8 miles (13 km)
Ceiling: at least 12,000 feet AGL
Clouds: sky clear below 12,000 feet AGL
Weather: automated observation with no human augmentation;
there may or may not be significant weather present at this time

METAR text: KPHD 210353Z AUTO 13003KT 9SM CLR 24/22 A3006 RMK AO2 SLP171 T02390217
Conditions at: KPHD (NEW PHILADELPHIA, OH, US) observed 0353 UTC 21 September 2018
Temperature: 23.9°C (75°F)
Dewpoint: 21.7°C (71°F) [RH = 88%]
Pressure (altimeter): 30.06 inches Hg (1018.0 mb)
[Sea-level pressure: 1017.1 mb]
Winds: from the SE (130 degrees) at 3 MPH (3 knots; 1.5 m/s)
Visibility: 9 miles (14 km)
Ceiling: at least 12,000 feet AGL
Clouds: sky clear below 12,000 feet AGL
Weather: automated observation with no human augmentation;
there may or may not be significant weather present at this time

METAR text: KPHD 210253Z AUTO 13005KT 8SM CLR 24/22 A3006 RMK AO2 SLP173 T02390222 50000
Conditions at: KPHD (NEW PHILADELPHIA, OH, US) observed 0253 UTC 21 September 2018
Temperature: 23.9°C (75°F)
Dewpoint: 22.2°C (72°F) [RH = 90%]
Pressure (altimeter): 30.06 inches Hg (1018.0 mb)
[Sea-level pressure: 1017.3 mb]
Winds: from the SE (130 degrees) at 6 MPH (5 knots; 2.6 m/s)
Visibility: 8 miles (13 km)
Ceiling: at least 12,000 feet AGL
Clouds: sky clear below 12,000 feet AGL
Weather: automated observation with no human augmentation;
there may or may not be significant weather present at this time

METAR text: KPHD 210153Z AUTO 13006KT 9SM CLR 24/22 A3007 RMK AO2 SLP176 T02440222
Conditions at: KPHD (NEW PHILADELPHIA, OH, US) observed 0153 UTC 21 September 2018
Temperature: 24.4°C (76°F)
Dewpoint: 22.2°C (72°F) [RH = 88%]
Pressure (altimeter): 30.07 inches Hg (1018.4 mb)
[Sea-level pressure: 1017.6 mb]
Winds: from the SE (130 degrees) at 7 MPH (6 knots; 3.1 m/s)
Visibility: 9 miles (14 km)
Ceiling: at least 12,000 feet AGL
Clouds: sky clear below 12,000 feet AGL
Weather: automated observation with no human augmentation;
there may or may not be significant weather present at this time

METAR text: KPHD 210053Z AUTO 12005KT 10SM CLR 25/22 A3006 RMK AO2 SLP176 T02500222
Conditions at: KPHD (NEW PHILADELPHIA, OH, US) observed 0053 UTC 21 September 2018
Temperature: 25.0°C (77°F)
Dewpoint: 22.2°C (72°F) [RH = 84%]
Pressure (altimeter): 30.06 inches Hg (1018.0 mb)
[Sea-level pressure: 1017.6 mb]
Winds: from the ESE (120 degrees) at 6 MPH (5 knots; 2.6 m/s)
Visibility: 10 or more miles (16+ km)
Ceiling: at least 12,000 feet AGL
Clouds: sky clear below 12,000 feet AGL
Weather: automated observation with no human augmentation;
there may or may not be significant weather present at this time

METAR text: KPHD 202353Z AUTO 14005KT 10SM CLR 26/22 A3006 RMK AO2 SLP174 T02610222 10311 20261 53000
Conditions at: KPHD (NEW PHILADELPHIA, OH, US) observed 2353 UTC 20 September 2018
Temperature: 26.1°C (79°F)
Dewpoint: 22.2°C (72°F) [RH = 79%]
Pressure (altimeter): 30.06 inches Hg (1018.0 mb)
[Sea-level pressure: 1017.4 mb]
Winds: from the SE (140 degrees) at 6 MPH (5 knots; 2.6 m/s)
Visibility: 10 or more miles (16+ km)
Ceiling: at least 12,000 feet AGL
Clouds: sky clear below 12,000 feet AGL
Weather: automated observation with no human augmentation;
there may or may not be significant weather present at this time

METAR text: KPHD 202253Z AUTO 16003KT 10SM CLR 28/22 A3006 RMK AO2 SLP174 T02830222
Conditions at: KPHD (NEW PHILADELPHIA, OH, US) observed 2253 UTC 20 September 2018
Temperature: 28.3°C (83°F)
Dewpoint: 22.2°C (72°F) [RH = 70%]
Pressure (altimeter): 30.06 inches Hg (1018.0 mb)
[Sea-level pressure: 1017.4 mb]
Winds: from the SSE (160 degrees) at 3 MPH (3 knots; 1.5 m/s)
Visibility: 10 or more miles (16+ km)
Ceiling: at least 12,000 feet AGL
Clouds: sky clear below 12,000 feet AGL
Weather: automated observation with no human augmentation;
there may or may not be significant weather present at this time

METAR text: KPHD 202153Z AUTO 17004KT 10SM CLR 30/22 A3006 RMK AO2 SLP172 T03000217
Conditions at: KPHD (NEW PHILADELPHIA, OH, US) observed 2153 UTC 20 September 2018
Temperature: 30.0°C (86°F)
Dewpoint: 21.7°C (71°F) [RH = 61%]
Pressure (altimeter): 30.06 inches Hg (1018.0 mb)
[Sea-level pressure: 1017.2 mb]
Winds: from the S (170 degrees) at 5 MPH (4 knots; 2.1 m/s)
Visibility: 10 or more miles (16+ km)
Ceiling: at least 12,000 feet AGL
Clouds: sky clear below 12,000 feet AGL
Weather: automated observation with no human augmentation;
there may or may not be significant weather present at this time

METAR text: KPHD 202053Z AUTO 18007KT 10SM CLR 31/22 A3006 RMK AO2 SLP173 T03060217 56014
Conditions at: KPHD (NEW PHILADELPHIA, OH, US) observed 2053 UTC 20 September 2018
Temperature: 30.6°C (87°F)
Dewpoint: 21.7°C (71°F) [RH = 59%]
Pressure (altimeter): 30.06 inches Hg (1018.0 mb)
[Sea-level pressure: 1017.3 mb]
Winds: from the S (180 degrees) at 8 MPH (7 knots; 3.6 m/s)
Visibility: 10 or more miles (16+ km)
Ceiling: at least 12,000 feet AGL
Clouds: sky clear below 12,000 feet AGL
Weather: automated observation with no human augmentation;
there may or may not be significant weather present at this time

METAR text: KPHD 201953Z AUTO 18005KT 10SM SCT040 31/22 A3007 RMK AO2 SLP176 T03110217
Conditions at: KPHD (NEW PHILADELPHIA, OH, US) observed 1953 UTC 20 September 2018
Temperature: 31.1°C (88°F)
Dewpoint: 21.7°C (71°F) [RH = 57%]
Pressure (altimeter): 30.07 inches Hg (1018.4 mb)
[Sea-level pressure: 1017.6 mb]
Winds: from the S (180 degrees) at 6 MPH (5 knots; 2.6 m/s)
Visibility: 10 or more miles (16+ km)
Ceiling: at least 12,000 feet AGL
Clouds: scattered clouds at 4000 feet AGL
Weather: automated observation with no human augmentation;
there may or may not be significant weather present at this time

METAR text: KPHD 201853Z AUTO 19005KT 10SM SCT040 SCT050 31/22 A3008 RMK AO2 SLP181 T03060217
Conditions at: KPHD (NEW PHILADELPHIA, OH, US) observed 1853 UTC 20 September 2018
Temperature: 30.6°C (87°F)
Dewpoint: 21.7°C (71°F) [RH = 59%]
Pressure (altimeter): 30.08 inches Hg (1018.7 mb)
[Sea-level pressure: 1018.1 mb]
Winds: from the S (190 degrees) at 6 MPH (5 knots; 2.6 m/s)
Visibility: 10 or more miles (16+ km)
Ceiling: at least 12,000 feet AGL
Clouds: scattered clouds at 4000 feet AGL
scattered clouds at 5000 feet AGL
Weather: automated observation with no human augmentation;
there may or may not be significant weather present at this time

METAR text: KPHD 201753Z AUTO 15005KT 10SM SCT034 30/22 A3010 RMK AO2 SLP187 T03000217 10306 20161 58014
Conditions at: KPHD (NEW PHILADELPHIA, OH, US) observed 1753 UTC 20 September 2018
Temperature: 30.0°C (86°F)
Dewpoint: 21.7°C (71°F) [RH = 61%]
Pressure (altimeter): 30.10 inches Hg (1019.4 mb)
[Sea-level pressure: 1018.7 mb]
Winds: from the SSE (150 degrees) at 6 MPH (5 knots; 2.6 m/s)
Visibility: 10 or more miles (16+ km)
Ceiling: at least 12,000 feet AGL
Clouds: scattered clouds at 3400 feet AGL
Weather: automated observation with no human augmentation;
there may or may not be significant weather present at this time

METAR text: KPHD 201653Z AUTO VRB03KT 10SM CLR 29/21 A3012 RMK AO2 SLP195 T02890211
Conditions at: KPHD (NEW PHILADELPHIA, OH, US) observed 1653 UTC 20 September 2018
Temperature: 28.9°C (84°F)
Dewpoint: 21.1°C (70°F) [RH = 63%]
Pressure (altimeter): 30.12 inches Hg (1020.1 mb)
[Sea-level pressure: 1019.5 mb]
Winds: variable direction winds at 3 MPH (3 knots; 1.5 m/s)
Visibility: 10 or more miles (16+ km)
Ceiling: at least 12,000 feet AGL
Clouds: sky clear below 12,000 feet AGL
Weather: automated observation with no human augmentation;
there may or may not be significant weather present at this time

METAR text: KPHD 201553Z AUTO 00000KT 10SM CLR 28/21 A3013 RMK AO2 SLP198 T02780211
Conditions at: KPHD (NEW PHILADELPHIA, OH, US) observed 1553 UTC 20 September 2018
Temperature: 27.8°C (82°F)
Dewpoint: 21.1°C (70°F) [RH = 67%]
Pressure (altimeter): 30.13 inches Hg (1020.4 mb)
[Sea-level pressure: 1019.8 mb]
Winds: calm
Visibility: 10 or more miles (16+ km)
Ceiling: at least 12,000 feet AGL
Clouds: sky clear below 12,000 feet AGL
Weather: automated observation with no human augmentation;
there may or may not be significant weather present at this time